NCAR-RAP Real-Time Weather Data

Output produced by METARs form (23 February 2020  02:40 UTC)
found at http://weather.rap.ucar.edu/surface/
 
RJKA 230200Z 36017KT 9999 FEW030 BKN040 18/09 Q1028
 
ROAH 230230Z 02013KT 9999 FEW030 20/10 Q1028 RMK 1CU030 A3037
 
RODN 230156Z AUTO 03011KT 10SM CLR 20/06 A3039 RMK AO2 SLP298 T01990062 FZRANO $
 
ROIG 230200Z 07017KT 9999 FEW023 23/17 Q1027
 
ROMY 230200Z 06013KT 9999 FEW025 SCT032 BKN045 21/15 Q1028
 
RORS 230200Z 07014KT 9999 FEW026 BKN045 22/15 Q1028